sensor_id;sensor_type;location;lat;lon;timestamp;pressure;altitude;pressure_sealevel;temperature;humidity
55590;BME280;41452;42.780;23.116;2023-12-20T00:00:18;94728.06;;;-1.10;98.40
55590;BME280;41452;42.780;23.116;2023-12-20T00:02:43;94719.53;;;-1.11;99.09
55590;BME280;41452;42.780;23.116;2023-12-20T00:05:13;94716.94;;;-1.11;98.27
55590;BME280;41452;42.780;23.116;2023-12-20T00:07:38;94699.31;;;-1.24;98.75
55590;BME280;41452;42.780;23.116;2023-12-20T00:10:04;94714.81;;;-1.16;98.72
55590;BME280;41452;42.780;23.116;2023-12-20T00:12:29;94713.06;;;-1.15;98.07
55590;BME280;41452;42.780;23.116;2023-12-20T00:14:55;94691.34;;;-1.30;98.41
55590;BME280;41452;42.780;23.116;2023-12-20T00:17:20;94709.47;;;-1.22;98.29
55590;BME280;41452;42.780;23.116;2023-12-20T00:19:45;94696.72;;;-1.24;98.43
55590;BME280;41452;42.780;23.116;2023-12-20T00:22:11;94698.03;;;-1.20;98.04
55590;BME280;41452;42.780;23.116;2023-12-20T00:24:36;94670.88;;;-1.32;97.87
55590;BME280;41452;42.780;23.116;2023-12-20T00:27:02;94686.13;;;-1.21;97.62
55590;BME280;41452;42.780;23.116;2023-12-20T00:29:27;94686.41;;;-1.24;98.29
55590;BME280;41452;42.780;23.116;2023-12-20T00:31:53;94638.16;;;-1.58;98.21
55590;BME280;41452;42.780;23.116;2023-12-20T00:34:18;94675.09;;;-1.31;98.30
55590;BME280;41452;42.780;23.116;2023-12-20T00:36:43;94672.66;;;-1.32;98.20
55590;BME280;41452;42.780;23.116;2023-12-20T00:39:09;94671.84;;;-1.33;97.83
55590;BME280;41452;42.780;23.116;2023-12-20T00:41:34;94667.56;;;-1.42;98.29
55590;BME280;41452;42.780;23.116;2023-12-20T00:44:00;94622.63;;;-1.66;98.27
55590;BME280;41452;42.780;23.116;2023-12-20T00:46:25;94655.88;;;-1.37;98.13
55590;BME280;41452;42.780;23.116;2023-12-20T00:48:50;94662.78;;;-1.37;98.00
55590;BME280;41452;42.780;23.116;2023-12-20T00:51:16;94657.78;;;-1.39;98.32
55590;BME280;41452;42.780;23.116;2023-12-20T00:53:41;94642.28;;;-1.47;97.98
55590;BME280;41452;42.780;23.116;2023-12-20T00:56:07;94637.63;;;-1.43;97.71
55590;BME280;41452;42.780;23.116;2023-12-20T00:58:32;94648.81;;;-1.35;97.42
55590;BME280;41452;42.780;23.116;2023-12-20T01:00:57;94650.56;;;-1.35;97.55
55590;BME280;41452;42.780;23.116;2023-12-20T01:03:23;94645.88;;;-1.40;98.01
55590;BME280;41452;42.780;23.116;2023-12-20T01:05:48;94601.38;;;-1.68;98.03
55590;BME280;41452;42.780;23.116;2023-12-20T01:08:14;94641.50;;;-1.39;98.03
55590;BME280;41452;42.780;23.116;2023-12-20T01:10:39;94639.59;;;-1.37;97.67
55590;BME280;41452;42.780;23.116;2023-12-20T01:13:05;94603.03;;;-1.59;97.87
55590;BME280;41452;42.780;23.116;2023-12-20T01:15:30;94639.59;;;-1.37;97.83
55590;BME280;41452;42.780;23.116;2023-12-20T01:17:56;94607.25;;;-1.58;98.08
55590;BME280;41452;42.780;23.116;2023-12-20T01:20:23;94598.03;;;-1.60;98.45
55590;BME280;41452;42.780;23.116;2023-12-20T01:22:49;94597.25;;;-1.61;97.80
55590;BME280;41452;42.780;23.116;2023-12-20T01:25:14;94612.91;;;-1.54;97.93
55590;BME280;41452;42.780;23.116;2023-12-20T01:27:39;94623.78;;;-1.42;98.05
55590;BME280;41452;42.780;23.116;2023-12-20T01:30:05;94622.16;;;-1.43;97.64
55590;BME280;41452;42.780;23.116;2023-12-20T01:32:31;94601.97;;;-1.56;97.76
55590;BME280;41452;42.780;23.116;2023-12-20T01:34:56;94614.59;;;-1.45;97.95
55590;BME280;41452;42.780;23.116;2023-12-20T01:37:22;94603.69;;;-1.57;97.93
55590;BME280;41452;42.780;23.116;2023-12-20T01:39:49;94595.59;;;-1.62;97.66
55590;BME280;41452;42.780;23.116;2023-12-20T01:42:14;94609.22;;;-1.51;97.99
55590;BME280;41452;42.780;23.116;2023-12-20T01:44:54;94571.06;;;-1.74;97.77
55590;BME280;41452;42.780;23.116;2023-12-20T01:47:20;94596.13;;;-1.58;97.83
55590;BME280;41452;42.780;23.116;2023-12-20T01:49:46;94591.66;;;-1.56;97.83
55590;BME280;41452;42.780;23.116;2023-12-20T01:52:12;94535.19;;;-1.94;97.96
55590;BME280;41452;42.780;23.116;2023-12-20T01:54:38;94583.06;;;-1.65;97.88
55590;BME280;41452;42.780;23.116;2023-12-20T01:57:06;94587.44;;;-1.57;97.57
55590;BME280;41452;42.780;23.116;2023-12-20T01:59:32;94590.97;;;-1.58;98.34
55590;BME280;41452;42.780;23.116;2023-12-20T02:01:58;94588.56;;;-1.60;97.98
55590;BME280;41452;42.780;23.116;2023-12-20T02:04:24;94580.66;;;-1.58;97.94
55590;BME280;41452;42.780;23.116;2023-12-20T02:06:52;94529.44;;;-1.87;98.13
55590;BME280;41452;42.780;23.116;2023-12-20T02:09:18;94569.19;;;-1.64;97.89
55590;BME280;41452;42.780;23.116;2023-12-20T02:11:43;94556.78;;;-1.68;97.70
55590;BME280;41452;42.780;23.116;2023-12-20T02:14:09;94557.28;;;-1.65;97.46
55590;BME280;41452;42.780;23.116;2023-12-20T02:16:34;94560.81;;;-1.66;97.87
55590;BME280;41452;42.780;23.116;2023-12-20T02:19:00;94547.72;;;-1.73;97.96
55590;BME280;41452;42.780;23.116;2023-12-20T02:21:31;94531.78;;;-1.76;97.58
55590;BME280;41452;42.780;23.116;2023-12-20T02:23:56;94524.72;;;-1.74;96.81
55590;BME280;41452;42.780;23.116;2023-12-20T02:26:22;94521.19;;;-1.73;96.53
55590;BME280;41452;42.780;23.116;2023-12-20T02:28:47;94535.22;;;-1.67;97.14
55590;BME280;41452;42.780;23.116;2023-12-20T02:31:13;94537.66;;;-1.66;97.02
55590;BME280;41452;42.780;23.116;2023-12-20T02:33:38;94537.66;;;-1.66;96.75
55590;BME280;41452;42.780;23.116;2023-12-20T02:36:06;94542.94;;;-1.67;96.83
55590;BME280;41452;42.780;23.116;2023-12-20T02:38:31;94536.34;;;-1.70;96.76
55590;BME280;41452;42.780;23.116;2023-12-20T02:40:57;94537.44;;;-1.73;97.57
55590;BME280;41452;42.780;23.116;2023-12-20T02:43:22;94504.97;;;-1.92;96.92
55590;BME280;41452;42.780;23.116;2023-12-20T02:45:47;94529.03;;;-1.75;96.90
55590;BME280;41452;42.780;23.116;2023-12-20T02:48:13;94533.53;;;-1.77;96.97
55590;BME280;41452;42.780;23.116;2023-12-20T02:50:38;94512.72;;;-1.83;97.44
55590;BME280;41452;42.780;23.116;2023-12-20T02:53:04;94531.25;;;-1.80;97.60
55590;BME280;41452;42.780;23.116;2023-12-20T02:55:29;94488.78;;;-2.02;97.43
55590;BME280;41452;42.780;23.116;2023-12-20T02:57:54;94505.25;;;-1.95;98.14
55590;BME280;41452;42.780;23.116;2023-12-20T03:00:20;94522.75;;;-1.80;98.46
55590;BME280;41452;42.780;23.116;2023-12-20T03:02:45;94453.59;;;-2.19;98.58
55590;BME280;41452;42.780;23.116;2023-12-20T03:05:11;94492.38;;;-1.95;98.65
55590;BME280;41452;42.780;23.116;2023-12-20T03:07:37;94520.09;;;-1.70;98.96
55590;BME280;41452;42.780;23.116;2023-12-20T03:10:04;94518.81;;;-1.66;98.72
55590;BME280;41452;42.780;23.116;2023-12-20T03:12:29;94520.28;;;-1.64;98.66
55590;BME280;41452;42.780;23.116;2023-12-20T03:14:54;94514.81;;;-1.61;98.72
55590;BME280;41452;42.780;23.116;2023-12-20T03:17:20;94488.69;;;-1.74;98.96
55590;BME280;41452;42.780;23.116;2023-12-20T03:19:46;94515.78;;;-1.62;99.14
55590;BME280;41452;42.780;23.116;2023-12-20T03:22:11;94510.31;;;-1.59;99.50
55590;BME280;41452;42.780;23.116;2023-12-20T03:24:36;94506.16;;;-1.60;99.33
55590;BME280;41452;42.780;23.116;2023-12-20T03:27:02;94504.53;;;-1.61;99.16
55590;BME280;41452;42.780;23.116;2023-12-20T03:29:27;94503.72;;;-1.61;98.68
55590;BME280;41452;42.780;23.116;2023-12-20T03:31:53;94503.22;;;-1.65;98.63
55590;BME280;41452;42.780;23.116;2023-12-20T03:34:18;94495.56;;;-1.75;98.04
55590;BME280;41452;42.780;23.116;2023-12-20T03:36:44;94500.00;;;-1.67;98.40
55590;BME280;41452;42.780;23.116;2023-12-20T03:39:09;94498.38;;;-1.68;98.05
55590;BME280;41452;42.780;23.116;2023-12-20T03:41:35;94440.19;;;-2.05;97.52
55590;BME280;41452;42.780;23.116;2023-12-20T03:44:00;94496.22;;;-1.73;96.94
55590;BME280;41452;42.780;23.116;2023-12-20T03:46:26;94488.69;;;-1.74;97.07
55590;BME280;41452;42.780;23.116;2023-12-20T03:48:51;94417.50;;;-2.27;96.73
55590;BME280;41452;42.780;23.116;2023-12-20T03:51:16;94493.63;;;-1.81;96.61
55590;BME280;41452;42.780;23.116;2023-12-20T03:53:42;94466.94;;;-1.98;96.63
55590;BME280;41452;42.780;23.116;2023-12-20T03:56:07;94493.09;;;-1.84;96.08
55590;BME280;41452;42.780;23.116;2023-12-20T03:58:33;94495.97;;;-1.87;96.47
55590;BME280;41452;42.780;23.116;2023-12-20T04:00:58;94490.16;;;-1.89;96.58
55590;BME280;41452;42.780;23.116;2023-12-20T04:03:24;94488.69;;;-1.92;96.88
55590;BME280;41452;42.780;23.116;2023-12-20T04:05:49;94487.88;;;-1.93;96.68
55590;BME280;41452;42.780;23.116;2023-12-20T04:08:15;94477.75;;;-1.94;96.59
55590;BME280;41452;42.780;23.116;2023-12-20T04:10:40;94451.75;;;-2.09;96.48
55590;BME280;41452;42.780;23.116;2023-12-20T04:13:05;94422.66;;;-2.27;97.00
55590;BME280;41452;42.780;23.116;2023-12-20T04:15:31;94476.16;;;-1.95;96.87
55590;BME280;41452;42.780;23.116;2023-12-20T04:17:56;94464.38;;;-1.98;97.13
55590;BME280;41452;42.780;23.116;2023-12-20T04:20:22;94467.44;;;-1.94;97.63
55590;BME280;41452;42.780;23.116;2023-12-20T04:22:47;94463.28;;;-1.95;97.46
55590;BME280;41452;42.780;23.116;2023-12-20T04:25:12;94465.69;;;-1.94;97.49
55590;BME280;41452;42.780;23.116;2023-12-20T04:27:38;94424.84;;;-2.15;98.28
55590;BME280;41452;42.780;23.116;2023-12-20T04:30:04;94466.34;;;-1.92;98.08
55590;BME280;41452;42.780;23.116;2023-12-20T04:32:29;94430.78;;;-2.14;97.67
55590;BME280;41452;42.780;23.116;2023-12-20T04:34:55;94463.13;;;-1.94;97.92
55590;BME280;41452;42.780;23.116;2023-12-20T04:37:20;94461.50;;;-1.95;98.29
55590;BME280;41452;42.780;23.116;2023-12-20T04:39:45;94453.13;;;-1.97;98.18
55590;BME280;41452;42.780;23.116;2023-12-20T04:42:11;94431.00;;;-2.07;98.50
55590;BME280;41452;42.780;23.116;2023-12-20T04:44:36;94437.97;;;-2.00;98.41
55590;BME280;41452;42.780;23.116;2023-12-20T04:47:01;94455.72;;;-1.88;99.02
55590;BME280;41452;42.780;23.116;2023-12-20T04:49:27;94454.63;;;-1.86;98.89
55590;BME280;41452;42.780;23.116;2023-12-20T04:51:52;94443.53;;;-1.86;98.98
55590;BME280;41452;42.780;23.116;2023-12-20T04:54:18;94448.22;;;-1.82;99.26
55590;BME280;41452;42.780;23.116;2023-12-20T04:56:43;94446.78;;;-1.84;99.07
55590;BME280;41452;42.780;23.116;2023-12-20T04:59:08;94361.81;;;-2.37;99.03
55590;BME280;41452;42.780;23.116;2023-12-20T05:01:34;94447.41;;;-1.82;99.25
55590;BME280;41452;42.780;23.116;2023-12-20T05:03:59;94428.91;;;-1.86;98.78
55590;BME280;41452;42.780;23.116;2023-12-20T05:06:25;94380.25;;;-2.23;98.92
55590;BME280;41452;42.780;23.116;2023-12-20T05:08:50;94438.06;;;-1.83;98.45
55590;BME280;41452;42.780;23.116;2023-12-20T05:11:15;94413.53;;;-1.96;98.37
55590;BME280;41452;42.780;23.116;2023-12-20T05:13:41;94401.59;;;-2.05;98.03
55590;BME280;41452;42.780;23.116;2023-12-20T05:16:07;94354.47;;;-2.32;97.75
55590;BME280;41452;42.780;23.116;2023-12-20T05:18:34;94424.84;;;-1.88;97.17
55590;BME280;41452;42.780;23.116;2023-12-20T05:20:59;94371.88;;;-2.25;97.06
55590;BME280;41452;42.780;23.116;2023-12-20T05:23:24;94417.88;;;-1.96;96.83
55590;BME280;41452;42.780;23.116;2023-12-20T05:25:50;94421.94;;;-1.94;97.08
55590;BME280;41452;42.780;23.116;2023-12-20T05:28:15;94417.88;;;-1.96;97.20
55590;BME280;41452;42.780;23.116;2023-12-20T05:30:40;94425.75;;;-1.98;96.83
55590;BME280;41452;42.780;23.116;2023-12-20T05:33:06;94397.50;;;-2.16;96.89
55590;BME280;41452;42.780;23.116;2023-12-20T05:35:31;94354.06;;;-2.45;96.76
55590;BME280;41452;42.780;23.116;2023-12-20T05:37:56;94411.22;;;-2.07;97.08
55590;BME280;41452;42.780;23.116;2023-12-20T05:40:22;94395.06;;;-2.17;97.16
55590;BME280;41452;42.780;23.116;2023-12-20T05:42:47;94304.66;;;-2.75;97.09
55590;BME280;41452;42.780;23.116;2023-12-20T05:45:14;94409.31;;;-2.05;97.31
55590;BME280;41452;42.780;23.116;2023-12-20T05:47:40;94410.28;;;-2.06;98.01
55590;BME280;41452;42.780;23.116;2023-12-20T05:50:05;94404.81;;;-2.03;97.73
55590;BME280;41452;42.780;23.116;2023-12-20T05:52:31;94405.16;;;-1.98;97.89
55590;BME280;41452;42.780;23.116;2023-12-20T05:54:56;94404.06;;;-1.95;98.57
55590;BME280;41452;42.780;23.116;2023-12-20T05:57:27;94412.44;;;-1.93;98.40
55590;BME280;41452;42.780;23.116;2023-12-20T05:59:52;94370.66;;;-2.13;99.34
55590;BME280;41452;42.780;23.116;2023-12-20T06:02:17;94400.88;;;-1.89;99.17
55590;BME280;41452;42.780;23.116;2023-12-20T06:04:43;94399.78;;;-1.86;99.37
55590;BME280;41452;42.780;23.116;2023-12-20T06:07:11;94398.16;;;-1.87;99.68
55590;BME280;41452;42.780;23.116;2023-12-20T06:09:37;94380.03;;;-2.04;100.00
55590;BME280;41452;42.780;23.116;2023-12-20T06:12:02;94372.00;;;-2.01;100.00
55590;BME280;41452;42.780;23.116;2023-12-20T06:14:28;94399.59;;;-1.85;100.00
55590;BME280;41452;42.780;23.116;2023-12-20T06:16:53;94384.63;;;-1.89;100.00
55590;BME280;41452;42.780;23.116;2023-12-20T06:19:18;94372.00;;;-2.01;100.00
55590;BME280;41452;42.780;23.116;2023-12-20T06:21:44;94360.69;;;-2.08;100.00
55590;BME280;41452;42.780;23.116;2023-12-20T06:24:09;94391.88;;;-1.85;100.00
55590;BME280;41452;42.780;23.116;2023-12-20T06:26:35;94386.13;;;-1.79;100.00
55590;BME280;41452;42.780;23.116;2023-12-20T06:29:00;94358.25;;;-1.92;100.00
55590;BME280;41452;42.780;23.116;2023-12-20T06:31:26;94393.09;;;-1.71;100.00
55590;BME280;41452;42.780;23.116;2023-12-20T06:33:51;94386.97;;;-1.70;100.00
55590;BME280;41452;42.780;23.116;2023-12-20T06:36:23;94387.63;;;-1.68;100.00
55590;BME280;41452;42.780;23.116;2023-12-20T06:38:48;94362.31;;;-1.81;100.00
55590;BME280;41452;42.780;23.116;2023-12-20T06:41:13;94379.59;;;-1.65;100.00
55590;BME280;41452;42.780;23.116;2023-12-20T06:43:39;94388.28;;;-1.66;100.00
55590;BME280;41452;42.780;23.116;2023-12-20T06:46:06;94384.09;;;-1.67;100.00
55590;BME280;41452;42.780;23.116;2023-12-20T06:48:31;94376.06;;;-1.64;100.00
55590;BME280;41452;42.780;23.116;2023-12-20T06:50:59;94322.31;;;-2.01;100.00
55590;BME280;41452;42.780;23.116;2023-12-20T06:53:24;94371.22;;;-1.67;100.00
55590;BME280;41452;42.780;23.116;2023-12-20T06:55:50;94361.44;;;-1.63;100.00
55590;BME280;41452;42.780;23.116;2023-12-20T06:58:15;94354.47;;;-1.71;100.00
55590;BME280;41452;42.780;23.116;2023-12-20T07:00:41;94296.06;;;-2.05;100.00
55590;BME280;41452;42.780;23.116;2023-12-20T07:03:07;94360.94;;;-1.59;100.00
55590;BME280;41452;42.780;23.116;2023-12-20T07:05:32;94374.16;;;-1.54;100.00
55590;BME280;41452;42.780;23.116;2023-12-20T07:07:58;94372.38;;;-1.53;100.00
55590;BME280;41452;42.780;23.116;2023-12-20T07:10:24;94373.06;;;-1.43;100.00
55590;BME280;41452;42.780;23.116;2023-12-20T07:12:49;94367.63;;;-1.40;100.00
55590;BME280;41452;42.780;23.116;2023-12-20T07:15:16;94364.25;;;-1.32;100.00
55590;BME280;41452;42.780;23.116;2023-12-20T07:17:41;94294.75;;;-1.75;100.00
55590;BME280;41452;42.780;23.116;2023-12-20T07:20:08;94362.03;;;-1.27;100.00
55590;BME280;41452;42.780;23.116;2023-12-20T08:20:11;94316.81;;;-0.80;100.00
55590;BME280;41452;42.780;23.116;2023-12-20T08:22:36;94310.22;;;-0.74;100.00
55590;BME280;41452;42.780;23.116;2023-12-20T08:25:02;94269.91;;;-1.00;100.00
55590;BME280;41452;42.780;23.116;2023-12-20T08:27:27;94293.13;;;-0.75;100.00
55590;BME280;41452;42.780;23.116;2023-12-20T08:29:53;94272.69;;;-0.85;100.00
55590;BME280;41452;42.780;23.116;2023-12-20T08:32:18;94220.94;;;-1.17;100.00
55590;BME280;41452;42.780;23.116;2023-12-20T08:34:43;94266.38;;;-0.99;100.00
55590;BME280;41452;42.780;23.116;2023-12-20T08:37:09;94279.91;;;-0.97;100.00
55590;BME280;41452;42.780;23.116;2023-12-20T08:39:34;94295.06;;;-0.78;100.00
55590;BME280;41452;42.780;23.116;2023-12-20T08:41:59;94289.91;;;-0.61;100.00
55590;BME280;41452;42.780;23.116;2023-12-20T08:44:25;94249.28;;;-0.67;100.00
55590;BME280;41452;42.780;23.116;2023-12-20T08:46:50;94286.66;;;-0.47;100.00
55590;BME280;41452;42.780;23.116;2023-12-20T08:49:16;94260.69;;;-0.53;100.00
55590;BME280;41452;42.780;23.116;2023-12-20T08:51:42;94275.06;;;-0.43;100.00
55590;BME280;41452;42.780;23.116;2023-12-20T08:54:07;94272.59;;;-0.36;100.00
55590;BME280;41452;42.780;23.116;2023-12-20T08:56:33;94241.53;;;-0.59;100.00
55590;BME280;41452;42.780;23.116;2023-12-20T08:58:59;94241.03;;;-0.63;100.00
55590;BME280;41452;42.780;23.116;2023-12-20T09:01:24;94263.09;;;-0.35;100.00
55590;BME280;41452;42.780;23.116;2023-12-20T09:03:49;94264.69;;;-0.34;100.00
55590;BME280;41452;42.780;23.116;2023-12-20T09:06:15;94182.09;;;-0.74;100.00
55590;BME280;41452;42.780;23.116;2023-12-20T09:08:41;94249.22;;;-0.34;100.00
55590;BME280;41452;42.780;23.116;2023-12-20T09:11:06;94242.78;;;-0.39;100.00
55590;BME280;41452;42.780;23.116;2023-12-20T09:13:32;94196.91;;;-0.76;100.00
55590;BME280;41452;42.780;23.116;2023-12-20T09:15:57;94237.63;;;-0.39;100.00
55590;BME280;41452;42.780;23.116;2023-12-20T09:18:23;94188.66;;;-0.55;100.00
55590;BME280;41452;42.780;23.116;2023-12-20T09:20:49;94217.97;;;-0.48;100.00
55590;BME280;41452;42.780;23.116;2023-12-20T09:23:14;94224.25;;;-0.50;100.00
55590;BME280;41452;42.780;23.116;2023-12-20T09:25:39;94153.19;;;-0.69;100.00
55590;BME280;41452;42.780;23.116;2023-12-20T09:28:05;94142.06;;;-0.62;100.00
55590;BME280;41452;42.780;23.116;2023-12-20T09:30:30;94152.97;;;-0.43;100.00
55590;BME280;41452;42.780;23.116;2023-12-20T09:32:57;94167.91;;;-0.30;100.00
55590;BME280;41452;42.780;23.116;2023-12-20T09:35:23;94193.78;;;-0.07;100.00
55590;BME280;41452;42.780;23.116;2023-12-20T09:37:49;94178.09;;;0.03;100.00
55590;BME280;41452;42.780;23.116;2023-12-20T09:40:17;94144.50;;;-0.21;100.00
55590;BME280;41452;42.780;23.116;2023-12-20T09:42:57;94171.91;;;0.12;100.00
55590;BME280;41452;42.780;23.116;2023-12-20T09:45:23;94154.41;;;-0.01;100.00
55590;BME280;41452;42.780;23.116;2023-12-20T09:47:53;94136.78;;;0.03;100.00
55590;BME280;41452;42.780;23.116;2023-12-20T09:50:20;94169.22;;;0.28;100.00
55590;BME280;41452;42.780;23.116;2023-12-20T09:52:49;94166.31;;;0.31;100.00
55590;BME280;41452;42.780;23.116;2023-12-20T09:55:17;94168.72;;;0.33;100.00
55590;BME280;41452;42.780;23.116;2023-12-20T09:57:43;94114.81;;;0.07;100.00
55590;BME280;41452;42.780;23.116;2023-12-20T10:00:09;94148.81;;;0.42;100.00
55590;BME280;41452;42.780;23.116;2023-12-20T10:02:38;94141.97;;;0.49;100.00
55590;BME280;41452;42.780;23.116;2023-12-20T10:05:08;94129.50;;;0.52;100.00
55590;BME280;41452;42.780;23.116;2023-12-20T10:07:35;94113.38;;;0.50;100.00
55590;BME280;41452;42.780;23.116;2023-12-20T10:10:01;94117.66;;;0.58;100.00
55590;BME280;41452;42.780;23.116;2023-12-20T10:12:27;94059.06;;;0.35;100.00
55590;BME280;41452;42.780;23.116;2023-12-20T10:14:52;94104.06;;;0.64;100.00
55590;BME280;41452;42.780;23.116;2023-12-20T10:17:18;94106.66;;;0.64;100.00
55590;BME280;41452;42.780;23.116;2023-12-20T10:19:43;94104.41;;;0.61;100.00
55590;BME280;41452;42.780;23.116;2023-12-20T11:24:25;93995.59;;;0.71;100.00
55590;BME280;41452;42.780;23.116;2023-12-20T11:26:55;93995.25;;;0.74;100.00
55590;BME280;41452;42.780;23.116;2023-12-20T11:29:35;93935.25;;;0.49;100.00
55590;BME280;41452;42.780;23.116;2023-12-20T11:32:02;93981.97;;;0.77;100.00
55590;BME280;41452;42.780;23.116;2023-12-20T11:34:29;93976.34;;;0.88;100.00
55590;BME280;41452;42.780;23.116;2023-12-20T11:37:00;93969.81;;;1.07;100.00
55590;BME280;41452;42.780;23.116;2023-12-20T11:39:26;93968.72;;;1.17;100.00
55590;BME280;41452;42.780;23.116;2023-12-20T11:41:55;93966.03;;;1.25;100.00
55590;BME280;41452;42.780;23.116;2023-12-20T11:44:21;93932.41;;;1.25;100.00
55590;BME280;41452;42.780;23.116;2023-12-20T11:46:47;93949.19;;;1.50;100.00
55590;BME280;41452;42.780;23.116;2023-12-20T11:49:12;93938.47;;;1.54;100.00
55590;BME280;41452;42.780;23.116;2023-12-20T11:51:41;93928.84;;;1.47;100.00
55590;BME280;41452;42.780;23.116;2023-12-20T11:54:07;93904.47;;;1.35;100.00
55590;BME280;41452;42.780;23.116;2023-12-20T11:56:35;93925.41;;;1.62;100.00
55590;BME280;41452;42.780;23.116;2023-12-20T11:59:01;93919.47;;;1.68;100.00
55590;BME280;41452;42.780;23.116;2023-12-20T12:01:26;93911.19;;;1.73;100.00
55590;BME280;41452;42.780;23.116;2023-12-20T12:04:03;93892.72;;;1.82;100.00
55590;BME280;41452;42.780;23.116;2023-12-20T12:06:28;93867.00;;;1.81;100.00
55590;BME280;41452;42.780;23.116;2023-12-20T12:08:54;93843.22;;;1.70;100.00
55590;BME280;41452;42.780;23.116;2023-12-20T12:11:21;93885.09;;;2.02;100.00
55590;BME280;41452;42.780;23.116;2023-12-20T12:13:46;93886.88;;;2.02;100.00
55590;BME280;41452;42.780;23.116;2023-12-20T12:16:12;93883.94;;;2.05;100.00
55590;BME280;41452;42.780;23.116;2023-12-20T12:18:37;93877.97;;;2.11;100.00
55590;BME280;41452;42.780;23.116;2023-12-20T12:21:03;93886.41;;;2.20;100.00
55590;BME280;41452;42.780;23.116;2023-12-20T12:23:28;93886.59;;;2.18;100.00
55590;BME280;41452;42.780;23.116;2023-12-20T12:25:54;93880.44;;;2.19;100.00
55590;BME280;41452;42.780;23.116;2023-12-20T13:33:20;93842.16;;;1.58;100.00
55590;BME280;41452;42.780;23.116;2023-12-20T13:35:45;93809.00;;;1.47;100.00
55590;BME280;41452;42.780;23.116;2023-12-20T13:38:12;93838.25;;;1.69;100.00
55590;BME280;41452;42.780;23.116;2023-12-20T13:40:38;93822.31;;;1.65;100.00
55590;BME280;41452;42.780;23.116;2023-12-20T13:43:04;93834.59;;;1.63;100.00
55590;BME280;41452;42.780;23.116;2023-12-20T13:45:30;93832.97;;;1.56;100.00
55590;BME280;41452;42.780;23.116;2023-12-20T13:47:55;93839.78;;;1.63;100.00
55590;BME280;41452;42.780;23.116;2023-12-20T13:50:21;93839.38;;;1.60;100.00
55590;BME280;41452;42.780;23.116;2023-12-20T13:52:47;93807.84;;;1.28;100.00
55590;BME280;41452;42.780;23.116;2023-12-20T13:55:12;93847.66;;;1.48;100.00
55590;BME280;41452;42.780;23.116;2023-12-20T13:57:37;93855.53;;;1.40;100.00
55590;BME280;41452;42.780;23.116;2023-12-20T14:00:04;93833.50;;;1.23;100.00
55590;BME280;41452;42.780;23.116;2023-12-20T14:02:30;93825.75;;;1.23;100.00
55590;BME280;41452;42.780;23.116;2023-12-20T14:04:55;93847.16;;;1.38;100.00
55590;BME280;41452;42.780;23.116;2023-12-20T14:07:21;93838.41;;;1.39;100.00
55590;BME280;41452;42.780;23.116;2023-12-20T14:09:46;93845.59;;;1.44;100.00
55590;BME280;41452;42.780;23.116;2023-12-20T14:12:13;93847.03;;;1.46;100.00
55590;BME280;41452;42.780;23.116;2023-12-20T14:14:38;93841.44;;;1.43;100.00
55590;BME280;41452;42.780;23.116;2023-12-20T14:17:03;93826.44;;;1.38;100.00
55590;BME280;41452;42.780;23.116;2023-12-20T14:19:31;93815.25;;;1.31;100.00
55590;BME280;41452;42.780;23.116;2023-12-20T14:21:57;93821.88;;;1.40;100.00
55590;BME280;41452;42.780;23.116;2023-12-20T14:24:26;93839.69;;;1.50;100.00
55590;BME280;41452;42.780;23.116;2023-12-20T14:26:52;93845.66;;;1.50;100.00
55590;BME280;41452;42.780;23.116;2023-12-20T14:29:18;93848.84;;;1.52;100.00
55590;BME280;41452;42.780;23.116;2023-12-20T14:31:43;93841.28;;;1.51;100.00
55590;BME280;41452;42.780;23.116;2023-12-20T14:34:09;93829.78;;;1.54;100.00
55590;BME280;41452;42.780;23.116;2023-12-20T14:36:35;93820.56;;;1.51;100.00
55590;BME280;41452;42.780;23.116;2023-12-20T14:39:00;93810.88;;;1.53;100.00
55590;BME280;41452;42.780;23.116;2023-12-20T14:41:27;93790.03;;;1.40;100.00
55590;BME280;41452;42.780;23.116;2023-12-20T14:43:53;93770.03;;;1.27;100.00
55590;BME280;41452;42.780;23.116;2023-12-20T14:46:18;93827.84;;;1.62;100.00
55590;BME280;41452;42.780;23.116;2023-12-20T14:48:44;93829.44;;;1.63;100.00
55590;BME280;41452;42.780;23.116;2023-12-20T14:51:10;93811.28;;;1.57;100.00
55590;BME280;41452;42.780;23.116;2023-12-20T14:53:37;93790.66;;;1.42;100.00
55590;BME280;41452;42.780;23.116;2023-12-20T14:56:03;93822.63;;;1.56;100.00
55590;BME280;41452;42.780;23.116;2023-12-20T15:09:44;93760.19;;;2.07;100.00
55590;BME280;41452;42.780;23.116;2023-12-20T15:12:11;93811.97;;;2.35;100.00
55590;BME280;41452;42.780;23.116;2023-12-20T15:14:37;93811.09;;;2.21;100.00
55590;BME280;41452;42.780;23.116;2023-12-20T15:17:03;93817.03;;;2.15;100.00
55590;BME280;41452;42.780;23.116;2023-12-20T15:19:30;93815.19;;;2.09;100.00
55590;BME280;41452;42.780;23.116;2023-12-20T15:21:55;93790.75;;;1.83;100.00
55590;BME280;41452;42.780;23.116;2023-12-20T15:24:21;93791.88;;;1.74;100.00
55590;BME280;41452;42.780;23.116;2023-12-20T15:26:53;93812.25;;;1.84;100.00
55590;BME280;41452;42.780;23.116;2023-12-20T15:29:19;93800.16;;;1.63;100.00
55590;BME280;41452;42.780;23.116;2023-12-20T15:31:46;93819.56;;;1.74;100.00
55590;BME280;41452;42.780;23.116;2023-12-20T15:34:11;93814.31;;;1.67;100.00
55590;BME280;41452;42.780;23.116;2023-12-20T15:36:38;93771.25;;;1.31;100.00
55590;BME280;41452;42.780;23.116;2023-12-20T15:39:04;93779.03;;;1.31;100.00
55590;BME280;41452;42.780;23.116;2023-12-20T15:41:30;93816.03;;;1.53;100.00
55590;BME280;41452;42.780;23.116;2023-12-20T15:43:55;93810.03;;;1.52;100.00
55590;BME280;41452;42.780;23.116;2023-12-20T15:46:22;93811.03;;;1.51;100.00
55590;BME280;41452;42.780;23.116;2023-12-20T15:48:47;93779.59;;;1.26;100.00
55590;BME280;41452;42.780;23.116;2023-12-20T15:51:14;93778.06;;;1.10;100.00
55590;BME280;41452;42.780;23.116;2023-12-20T15:53:39;93800.47;;;1.25;100.00
55590;BME280;41452;42.780;23.116;2023-12-20T15:56:05;93823.50;;;1.41;100.00